Time;durP1;ratioP1;P1;durP2;ratioP2;P2;SDS_P1;SDS_P2;PMS_P1;PMS_P2;Temp;Humidity;BMP_temperature;BMP_pressure;BME280_temperature;BME280_humidity;BME280_pressure;Samples;Min_cycle;Max_cycle;Signal;HPM_P1;HPM_P2
2022/05/22 00:01:34;;;;;;;;;;;14.20;99.90;;;;;;5093140;28;19935;-80
2022/05/22 00:03:59;;;;;;;;;;;14.20;99.90;;;;;;5092368;28;19908;-80
2022/05/22 00:06:25;;;;;;;;;;;14.20;99.90;;;;;;5093025;28;20365;-80
2022/05/22 00:08:50;;;;;;;;;;;14.10;99.90;;;;;;5093018;28;20254;-80
2022/05/22 00:11:16;;;;;;;;;;;14.10;99.90;;;;;;5092629;28;20011;-80
2022/05/22 00:13:41;;;;;;;;;;;14.10;99.90;;;;;;5096908;28;20357;-80
2022/05/22 00:18:51;;;;;;;;;;;14.10;99.90;;;;;;5096729;28;19919;-80
2022/05/22 00:21:16;;;;;;;;;;;14.10;99.90;;;;;;5096506;28;19912;-80
2022/05/22 00:23:45;;;;;;;;;;;14.10;99.90;;;;;;5096883;28;20025;-79
2022/05/22 00:26:11;;;;;;;;;;;14.10;99.90;;;;;;5096277;28;20014;-80
2022/05/22 00:28:36;;;;;;;;;;;14.20;99.90;;;;;;5096952;28;19951;-80
2022/05/22 00:31:02;;;;;;;;;;;14.10;99.90;;;;;;5095983;28;19909;-81
2022/05/22 00:33:28;;;;;;;;;;;14.10;99.90;;;;;;5096657;28;19954;-80
2022/05/22 00:35:53;;;;;;;;;;;14.10;99.90;;;;;;5096576;28;20396;-80
2022/05/22 00:38:19;;;;;;;;;;;14.20;99.90;;;;;;5096084;28;19909;-80
2022/05/22 00:40:44;;;;;;;;;;;14.20;99.90;;;;;;5096539;28;19947;-80
2022/05/22 00:43:28;;;;;;;;;;;14.20;99.90;;;;;;5096086;28;20326;-80
2022/05/22 00:45:55;;;;;;;;;;;14.20;99.90;;;;;;5096318;28;19912;-79
2022/05/22 00:48:20;;;;;;;;;;;14.30;99.90;;;;;;5095730;28;19920;-80
2022/05/22 00:50:46;;;;;;;;;;;14.40;99.90;;;;;;5096428;28;19908;-80
2022/05/22 00:53:12;;;;;;;;;;;14.40;99.90;;;;;;5095930;28;19908;-79
2022/05/22 00:55:38;;;;;;;;;;;14.50;99.90;;;;;;5096209;28;19909;-80
2022/05/22 00:58:18;;;;;;;;;;;14.50;99.90;;;;;;5095505;28;19920;-80
2022/05/22 01:00:44;;;;;;;;;;;14.50;99.90;;;;;;5096126;28;19916;-80
2022/05/22 01:03:31;;;;;;;;;;;14.50;99.90;;;;;;5095700;28;19908;-80
2022/05/22 01:06:04;;;;;;;;;;;14.50;99.90;;;;;;5096077;28;19916;-79
2022/05/22 01:08:31;;;;;;;;;;;14.50;99.90;;;;;;5096150;28;19916;-79
2022/05/22 01:11:03;;;;;;;;;;;14.50;99.90;;;;;;5095971;28;19968;-80
2022/05/22 01:13:39;;;;;;;;;;;14.50;99.90;;;;;;5096171;28;19996;-80
2022/05/22 01:16:05;;;;;;;;;;;14.50;99.90;;;;;;5095901;28;20053;-80
2022/05/22 01:18:39;;;;;;;;;;;14.40;99.90;;;;;;5095740;28;19919;-79
2022/05/22 01:21:09;;;;;;;;;;;14.50;99.90;;;;;;5095327;28;19908;-79
2022/05/22 01:23:35;;;;;;;;;;;14.50;99.90;;;;;;5094432;28;19908;-80
2022/05/22 01:26:00;;;;;;;;;;;14.50;99.90;;;;;;5095399;28;19916;-77
2022/05/22 01:28:26;;;;;;;;;;;14.30;99.90;;;;;;5095276;28;19919;-80
2022/05/22 01:30:52;;;;;;;;;;;14.40;99.90;;;;;;5095687;28;19958;-80
2022/05/22 01:33:17;;;;;;;;;;;14.40;99.90;;;;;;5095112;28;20331;-80
2022/05/22 01:35:43;;;;;;;;;;;14.40;99.90;;;;;;5095651;28;19951;-80
2022/05/22 01:38:08;;;;;;;;;;;14.30;99.90;;;;;;5094987;28;19934;-80
2022/05/22 01:40:34;;;;;;;;;;;14.30;99.90;;;;;;5095322;28;20333;-80
2022/05/22 01:43:00;;;;;;;;;;;14.30;99.90;;;;;;5095331;28;19964;-80
2022/05/22 01:45:26;;;;;;;;;;;14.20;99.90;;;;;;5094502;28;19957;-80
2022/05/22 01:47:52;;;;;;;;;;;14.30;99.90;;;;;;5095129;28;19919;-80
2022/05/22 01:50:18;;;;;;;;;;;14.20;99.90;;;;;;5094253;28;19908;-79
2022/05/22 01:52:44;;;;;;;;;;;14.30;99.90;;;;;;5095308;28;19912;-80
2022/05/22 01:55:11;;;;;;;;;;;14.30;99.90;;;;;;5094742;28;20073;-79
2022/05/22 01:57:37;;;;;;;;;;;14.40;99.90;;;;;;5094935;28;19927;-79
2022/05/22 02:00:03;;;;;;;;;;;14.40;99.90;;;;;;5094683;28;20262;-80
2022/05/22 02:02:29;;;;;;;;;;;14.40;99.90;;;;;;5094952;28;19915;-79
2022/05/22 02:04:55;;;;;;;;;;;14.40;99.90;;;;;;5093644;28;19912;-79
2022/05/22 02:10:05;;;;;;;;;;;14.50;99.90;;;;;;5094106;28;19915;-79
2022/05/22 02:12:31;;;;;;;;;;;14.50;99.90;;;;;;5094612;28;20479;-80
2022/05/22 02:14:56;;;;;;;;;;;14.50;99.90;;;;;;5094536;28;19951;-80
2022/05/22 02:17:22;;;;;;;;;;;14.50;99.90;;;;;;5094250;28;19908;-80
2022/05/22 02:19:47;;;;;;;;;;;14.60;99.90;;;;;;5094635;28;19908;-80
2022/05/22 02:22:13;;;;;;;;;;;14.60;99.90;;;;;;5094186;28;20406;-80
2022/05/22 02:24:38;;;;;;;;;;;14.60;99.90;;;;;;5094472;28;19908;-80
2022/05/22 02:27:06;;;;;;;;;;;14.60;99.90;;;;;;5094488;28;19919;-80
2022/05/22 02:29:33;;;;;;;;;;;14.60;99.90;;;;;;5094370;28;19908;-80
2022/05/22 02:31:59;;;;;;;;;;;14.60;99.90;;;;;;5094351;28;19993;-80
2022/05/22 02:34:24;;;;;;;;;;;14.60;99.90;;;;;;5093720;28;19958;-81
2022/05/22 02:36:50;;;;;;;;;;;14.60;99.90;;;;;;5094590;28;19912;-81
2022/05/22 02:39:18;;;;;;;;;;;14.60;99.90;;;;;;5093823;28;19909;-78
2022/05/22 02:41:44;;;;;;;;;;;14.60;99.90;;;;;;5094226;28;20000;-81
2022/05/22 02:44:10;;;;;;;;;;;14.70;99.90;;;;;;5093740;28;19908;-78
2022/05/22 02:46:35;;;;;;;;;;;14.70;99.90;;;;;;5093994;28;19912;-79
2022/05/22 02:49:01;;;;;;;;;;;14.70;99.90;;;;;;5094129;28;20308;-79
2022/05/22 02:51:26;;;;;;;;;;;14.70;99.90;;;;;;5093652;28;19912;-79
2022/05/22 02:53:52;;;;;;;;;;;14.70;99.90;;;;;;5094025;28;19921;-78
2022/05/22 02:56:19;;;;;;;;;;;14.70;99.90;;;;;;5093538;28;19908;-79
2022/05/22 02:58:45;;;;;;;;;;;14.70;99.90;;;;;;5093391;28;19951;-79
2022/05/22 03:01:10;;;;;;;;;;;14.60;99.90;;;;;;5093378;28;19962;-79
2022/05/22 03:03:36;;;;;;;;;;;14.60;99.90;;;;;;5093935;28;20363;-79
2022/05/22 03:08:45;;;;;;;;;;;14.60;99.90;;;;;;5093556;28;20309;-79
2022/05/22 03:11:12;;;;;;;;;;;14.60;99.90;;;;;;5093286;28;19908;-79
2022/05/22 03:13:37;;;;;;;;;;;14.70;99.90;;;;;;5093364;28;20375;-79
2022/05/22 03:16:03;;;;;;;;;;;14.70;99.90;;;;;;5093530;28;19912;-79
2022/05/22 03:18:28;;;;;;;;;;;14.70;99.90;;;;;;5093168;28;19908;-79
2022/05/22 03:20:54;;;;;;;;;;;14.70;99.90;;;;;;5093543;28;20002;-80
2022/05/22 03:23:19;;;;;;;;;;;14.60;99.90;;;;;;5092814;28;19908;-79
2022/05/22 03:25:46;;;;;;;;;;;14.70;99.90;;;;;;5093211;28;19919;-79
2022/05/22 03:28:11;;;;;;;;;;;14.70;99.90;;;;;;5092744;28;19912;-79
2022/05/22 03:30:37;;;;;;;;;;;14.70;99.90;;;;;;5093411;28;19931;-81
2022/05/22 03:33:03;;;;;;;;;;;14.60;99.90;;;;;;5093434;28;19912;-79
2022/05/22 03:35:29;;;;;;;;;;;14.60;99.90;;;;;;5093062;28;20637;-80
2022/05/22 03:37:55;;;;;;;;;;;14.60;99.90;;;;;;5093263;28;19908;-80
2022/05/22 03:40:20;;;;;;;;;;;14.70;99.90;;;;;;5092877;28;19912;-79
2022/05/22 03:42:46;;;;;;;;;;;14.60;99.90;;;;;;5093372;28;20307;-79
2022/05/22 03:45:12;;;;;;;;;;;14.60;99.90;;;;;;5092551;28;19966;-79
2022/05/22 03:47:38;;;;;;;;;;;14.60;99.90;;;;;;5095356;28;19965;-80
2022/05/22 03:50:05;;;;;;;;;;;14.60;99.90;;;;;;5097426;28;19915;-79
2022/05/22 03:52:32;;;;;;;;;;;14.60;99.90;;;;;;5096703;28;19912;-80
2022/05/22 03:54:58;;;;;;;;;;;14.60;99.90;;;;;;5097313;28;19960;-79
2022/05/22 03:57:24;;;;;;;;;;;14.50;99.90;;;;;;5096738;28;20384;-79
2022/05/22 03:59:49;;;;;;;;;;;14.50;99.90;;;;;;5097431;28;20353;-80
2022/05/22 04:02:15;;;;;;;;;;;14.50;99.90;;;;;;5096502;28;19915;-79
2022/05/22 04:04:41;;;;;;;;;;;14.50;99.90;;;;;;5097113;28;19912;-79
2022/05/22 04:07:07;;;;;;;;;;;14.50;99.90;;;;;;5097092;28;20380;-79
2022/05/22 04:09:32;;;;;;;;;;;14.40;99.90;;;;;;5096672;28;19908;-79
2022/05/22 04:11:58;;;;;;;;;;;14.40;99.90;;;;;;5097108;28;20003;-79
2022/05/22 04:14:24;;;;;;;;;;;14.50;99.90;;;;;;5096663;28;20002;-79
2022/05/22 04:16:50;;;;;;;;;;;14.40;99.90;;;;;;5097024;28;19908;-79
2022/05/22 04:19:16;;;;;;;;;;;14.40;99.90;;;;;;5096572;28;19908;-79
2022/05/22 04:21:41;;;;;;;;;;;14.40;99.90;;;;;;5096908;28;20342;-79
2022/05/22 04:26:51;;;;;;;;;;;14.50;99.90;;;;;;5096606;28;19939;-79
2022/05/22 04:29:17;;;;;;;;;;;14.50;99.90;;;;;;5096256;28;20342;-79
2022/05/22 04:31:43;;;;;;;;;;;14.50;99.90;;;;;;5096674;28;20002;-79
2022/05/22 04:34:08;;;;;;;;;;;14.50;99.90;;;;;;5096423;28;19908;-79
2022/05/22 04:36:34;;;;;;;;;;;14.50;99.90;;;;;;5096221;28;19908;-79
2022/05/22 04:38:59;;;;;;;;;;;14.50;99.90;;;;;;5096484;28;19908;-79
2022/05/22 04:41:25;;;;;;;;;;;14.50;99.90;;;;;;5096081;28;20273;-79
2022/05/22 04:43:51;;;;;;;;;;;14.60;99.90;;;;;;5096525;28;19955;-79
2022/05/22 04:46:16;;;;;;;;;;;14.60;99.90;;;;;;5096002;28;19912;-79
2022/05/22 04:48:42;;;;;;;;;;;14.60;99.90;;;;;;5096390;28;20239;-80
2022/05/22 04:51:08;;;;;;;;;;;14.60;99.90;;;;;;5096368;28;20317;-80
2022/05/22 04:53:34;;;;;;;;;;;14.60;99.90;;;;;;5095856;28;19912;-79
2022/05/22 04:55:59;;;;;;;;;;;14.60;99.90;;;;;;5096168;28;19908;-79
2022/05/22 04:58:25;;;;;;;;;;;14.70;99.90;;;;;;5095483;28;20365;-79
2022/05/22 05:00:50;;;;;;;;;;;14.70;99.90;;;;;;5096190;28;19912;-78
2022/05/22 05:03:16;;;;;;;;;;;14.70;99.90;;;;;;5095681;28;20364;-78
2022/05/22 05:05:42;;;;;;;;;;;14.70;99.90;;;;;;5096250;28;20372;-79
2022/05/22 05:08:07;;;;;;;;;;;14.70;99.90;;;;;;5095954;28;19912;-80
2022/05/22 05:10:33;;;;;;;;;;;14.70;99.90;;;;;;5095164;28;20407;-79
2022/05/22 05:13:00;;;;;;;;;;;14.70;99.90;;;;;;5095619;28;19987;-79
2022/05/22 05:15:25;;;;;;;;;;;14.70;99.90;;;;;;5095678;28;19915;-79
2022/05/22 05:17:51;;;;;;;;;;;14.70;99.90;;;;;;5096220;28;20002;-79
2022/05/22 05:20:18;;;;;;;;;;;14.70;99.90;;;;;;5095421;28;19915;-79
2022/05/22 05:22:44;;;;;;;;;;;14.70;99.90;;;;;;5095885;28;19908;-79
2022/05/22 05:25:11;;;;;;;;;;;14.70;99.90;;;;;;5095667;28;20337;-79
2022/05/22 05:27:37;;;;;;;;;;;14.70;99.90;;;;;;5095172;28;19916;-79
2022/05/22 05:30:03;;;;;;;;;;;14.70;99.90;;;;;;5095721;28;19908;-79
2022/05/22 05:32:28;;;;;;;;;;;14.70;99.90;;;;;;5095173;28;19961;-79
2022/05/22 05:34:58;;;;;;;;;;;14.70;99.90;;;;;;5094129;28;19912;-79
2022/05/22 05:37:23;;;;;;;;;;;14.80;99.90;;;;;;5095027;28;19930;-79
2022/05/22 05:39:49;;;;;;;;;;;14.80;99.90;;;;;;5095140;28;20361;-79
2022/05/22 05:42:15;;;;;;;;;;;14.80;99.90;;;;;;5095414;28;20006;-79
2022/05/22 05:44:40;;;;;;;;;;;14.80;99.90;;;;;;5094895;28;20319;-79
2022/05/22 05:47:07;;;;;;;;;;;14.80;99.90;;;;;;5095288;28;19916;-79
2022/05/22 05:49:33;;;;;;;;;;;14.80;99.90;;;;;;5094852;28;19913;-79
2022/05/22 05:51:58;;;;;;;;;;;14.90;99.90;;;;;;5095233;28;20307;-79
2022/05/22 05:54:24;;;;;;;;;;;14.90;99.90;;;;;;5094801;28;19991;-79
2022/05/22 05:56:49;;;;;;;;;;;14.90;99.90;;;;;;5094956;28;19908;-79
2022/05/22 05:59:15;;;;;;;;;;;15.00;99.90;;;;;;5095030;28;19974;-80
2022/05/22 06:01:41;;;;;;;;;;;15.00;99.90;;;;;;5094282;28;19916;-80
2022/05/22 06:04:07;;;;;;;;;;;15.00;99.90;;;;;;5094825;28;19912;-80
2022/05/22 06:06:33;;;;;;;;;;;15.10;99.90;;;;;;5094293;28;20041;-80
2022/05/22 06:08:58;;;;;;;;;;;15.10;99.90;;;;;;5094806;28;19919;-80
2022/05/22 06:11:24;;;;;;;;;;;15.10;99.90;;;;;;5093866;28;19908;-80
2022/05/22 06:13:50;;;;;;;;;;;15.20;99.90;;;;;;5094755;28;19930;-80
2022/05/22 06:16:15;;;;;;;;;;;15.20;99.90;;;;;;5094726;28;20427;-80
2022/05/22 06:18:42;;;;;;;;;;;15.20;99.90;;;;;;5093984;28;19930;-80
2022/05/22 06:21:13;;;;;;;;;;;15.20;99.90;;;;;;5094591;28;19977;-80
2022/05/22 06:23:38;;;;;;;;;;;15.30;99.90;;;;;;5094194;28;19908;-80
2022/05/22 06:26:05;;;;;;;;;;;15.30;99.90;;;;;;5094363;28;20007;-80
2022/05/22 06:28:31;;;;;;;;;;;15.40;99.90;;;;;;5094013;28;19920;-79
2022/05/22 06:30:57;;;;;;;;;;;15.40;99.90;;;;;;5094529;28;19973;-80
2022/05/22 06:33:23;;;;;;;;;;;15.50;99.90;;;;;;5093674;28;19915;-79
2022/05/22 06:35:49;;;;;;;;;;;15.50;99.90;;;;;;5094052;28;19930;-80
2022/05/22 06:41:04;;;;;;;;;;;15.60;99.90;;;;;;5094301;28;19915;-80
2022/05/22 06:43:30;;;;;;;;;;;15.60;99.90;;;;;;5093828;28;20033;-80
2022/05/22 06:45:55;;;;;;;;;;;15.60;99.90;;;;;;5094014;28;20002;-80
2022/05/22 06:48:21;;;;;;;;;;;15.60;99.90;;;;;;5093827;28;20365;-77
2022/05/22 06:50:46;;;;;;;;;;;15.70;99.90;;;;;;5094268;28;20269;-80
2022/05/22 06:53:12;;;;;;;;;;;15.70;99.90;;;;;;5094414;28;19966;-80
2022/05/22 06:55:37;;;;;;;;;;;15.60;99.90;;;;;;5093453;28;19923;-80
2022/05/22 06:58:03;;;;;;;;;;;15.70;99.90;;;;;;5093822;28;20254;-80
2022/05/22 07:00:30;;;;;;;;;;;15.70;99.90;;;;;;5093788;28;19915;-79
2022/05/22 07:02:55;;;;;;;;;;;15.70;99.90;;;;;;5093805;28;19908;-79
2022/05/22 07:05:21;;;;;;;;;;;15.80;99.90;;;;;;5093957;28;19922;-80
2022/05/22 07:07:47;;;;;;;;;;;15.80;99.90;;;;;;5093747;28;20335;-80
2022/05/22 07:10:13;;;;;;;;;;;15.80;99.90;;;;;;5093688;28;19909;-80
2022/05/22 07:12:39;;;;;;;;;;;15.90;99.90;;;;;;5093097;28;19908;-80
2022/05/22 07:15:05;;;;;;;;;;;15.90;99.90;;;;;;5093621;28;19915;-80
2022/05/22 07:17:31;;;;;;;;;;;15.90;99.90;;;;;;5093085;28;20007;-80
2022/05/22 07:19:56;;;;;;;;;;;15.90;99.90;;;;;;5093847;28;20018;-80
2022/05/22 07:22:22;;;;;;;;;;;15.80;99.90;;;;;;5093593;28;19908;-80
2022/05/22 07:24:48;;;;;;;;;;;15.80;99.90;;;;;;5093228;28;19961;-80
2022/05/22 07:27:14;;;;;;;;;;;15.80;99.90;;;;;;5093198;28;19912;-80
2022/05/22 07:29:40;;;;;;;;;;;15.80;99.90;;;;;;5092872;28;20335;-80
2022/05/22 07:32:06;;;;;;;;;;;15.80;99.90;;;;;;5093383;28;19915;-80
2022/05/22 07:34:32;;;;;;;;;;;15.80;99.90;;;;;;5092400;28;19908;-80
2022/05/22 07:36:59;;;;;;;;;;;15.90;99.90;;;;;;5093578;28;20342;-80
2022/05/22 07:39:25;;;;;;;;;;;16.00;99.90;;;;;;5092760;28;19914;-79
2022/05/22 07:41:50;;;;;;;;;;;16.00;99.90;;;;;;5093106;28;19999;-81
2022/05/22 07:44:16;;;;;;;;;;;16.00;99.90;;;;;;5093392;28;19909;-80
2022/05/22 07:46:41;;;;;;;;;;;16.00;99.90;;;;;;5092906;28;20420;-80
2022/05/22 07:49:07;;;;;;;;;;;16.10;99.90;;;;;;5092991;28;19919;-80
2022/05/22 07:51:33;;;;;;;;;;;16.10;99.90;;;;;;5092826;28;20015;-80
2022/05/22 07:53:58;;;;;;;;;;;16.10;99.90;;;;;;5093206;28;20346;-80
2022/05/22 07:56:24;;;;;;;;;;;16.20;99.90;;;;;;5093627;28;19969;-81
2022/05/22 07:58:50;;;;;;;;;;;16.20;99.90;;;;;;5093208;28;19920;-80
2022/05/22 08:01:16;;;;;;;;;;;16.20;99.90;;;;;;5093130;28;20011;-81
2022/05/22 08:03:42;;;;;;;;;;;16.10;99.90;;;;;;5092727;28;19954;-80
2022/05/22 08:06:08;;;;;;;;;;;16.10;99.90;;;;;;5093117;28;19955;-80
2022/05/22 08:08:33;;;;;;;;;;;16.00;99.90;;;;;;5092755;28;19912;-80
2022/05/22 08:10:59;;;;;;;;;;;16.00;99.90;;;;;;5093410;28;19922;-80
2022/05/22 08:13:25;;;;;;;;;;;16.00;99.90;;;;;;5093480;28;19998;-80
2022/05/22 08:15:50;;;;;;;;;;;16.00;99.90;;;;;;5092717;28;19912;-80
2022/05/22 08:18:16;;;;;;;;;;;15.90;99.90;;;;;;5093085;28;19908;-80
2022/05/22 08:20:43;;;;;;;;;;;15.90;99.90;;;;;;5092736;28;19909;-81
2022/05/22 08:23:10;;;;;;;;;;;15.90;99.90;;;;;;5092622;28;20323;-80
2022/05/22 08:25:36;;;;;;;;;;;16.00;99.90;;;;;;5092411;28;19965;-80
2022/05/22 08:28:04;;;;;;;;;;;16.10;99.90;;;;;;5092890;28;19916;-81
2022/05/22 08:30:30;;;;;;;;;;;16.20;99.90;;;;;;5092449;28;20015;-80
2022/05/22 08:32:56;;;;;;;;;;;16.20;99.90;;;;;;5093934;28;19934;-81
2022/05/22 08:35:23;;;;;;;;;;;16.10;99.90;;;;;;5097115;28;20285;-81
2022/05/22 08:37:49;;;;;;;;;;;16.00;99.90;;;;;;5096140;28;19961;-81
2022/05/22 08:40:15;;;;;;;;;;;16.00;99.90;;;;;;5096558;28;19912;-81
2022/05/22 08:42:43;;;;;;;;;;;16.00;99.90;;;;;;5096145;28;20242;-80
2022/05/22 08:45:15;;;;;;;;;;;16.00;99.90;;;;;;5095896;28;20358;-80
2022/05/22 08:47:48;;;;;;;;;;;15.90;99.90;;;;;;5095607;28;20402;-80
2022/05/22 08:50:14;;;;;;;;;;;15.70;99.90;;;;;;5096099;28;19908;-80
2022/05/22 08:52:49;;;;;;;;;;;15.70;99.90;;;;;;5096122;28;20390;-80
2022/05/22 08:55:17;;;;;;;;;;;15.60;99.90;;;;;;5096602;28;19908;-80
2022/05/22 09:00:28;;;;;;;;;;;15.60;99.90;;;;;;5095872;28;19915;-81
2022/05/22 09:02:59;;;;;;;;;;;15.60;99.90;;;;;;5096035;28;19922;-80
2022/05/22 09:05:28;;;;;;;;;;;15.40;99.90;;;;;;5095754;28;19912;-80
2022/05/22 09:07:56;;;;;;;;;;;15.40;99.90;;;;;;5095607;28;19912;-81
2022/05/22 09:10:31;;;;;;;;;;;15.40;99.90;;;;;;5095981;28;19908;-80
2022/05/22 09:12:56;;;;;;;;;;;15.50;99.90;;;;;;5095655;28;19910;-80
2022/05/22 09:15:34;;;;;;;;;;;15.60;99.90;;;;;;5095892;28;20313;-80
2022/05/22 09:18:18;;;;;;;;;;;15.60;99.90;;;;;;5095962;28;19908;-80
2022/05/22 09:20:43;;;;;;;;;;;15.80;99.90;;;;;;5095484;28;19909;-81
2022/05/22 09:23:15;;;;;;;;;;;15.90;99.90;;;;;;5095793;28;19908;-80
2022/05/22 09:25:47;;;;;;;;;;;15.90;99.90;;;;;;5095581;28;19920;-80
2022/05/22 09:28:22;;;;;;;;;;;15.90;99.90;;;;;;5095701;28;20006;-80
2022/05/22 09:31:00;;;;;;;;;;;15.90;99.90;;;;;;5095270;28;20019;-80
2022/05/22 09:33:46;;;;;;;;;;;15.90;99.90;;;;;;5095498;28;19953;-80
2022/05/22 09:36:14;;;;;;;;;;;15.80;99.90;;;;;;5095264;28;19909;-80
2022/05/22 09:38:44;;;;;;;;;;;15.90;99.90;;;;;;5095260;28;19908;-81
2022/05/22 09:41:15;;;;;;;;;;;16.10;99.90;;;;;;5095611;28;19908;-80
2022/05/22 09:43:50;;;;;;;;;;;16.20;99.90;;;;;;5095308;28;19970;-80
2022/05/22 09:46:41;;;;;;;;;;;16.40;99.90;;;;;;5094751;28;19912;-80
2022/05/22 09:49:06;;;;;;;;;;;16.40;99.90;;;;;;5095692;28;19912;-80
2022/05/22 09:51:38;;;;;;;;;;;16.50;99.90;;;;;;5105800;28;19959;-77
2022/05/22 09:54:20;;;;;;;;;;;16.50;99.90;;;;;;5112003;28;19908;-80
2022/05/22 09:56:59;;;;;;;;;;;16.40;99.90;;;;;;5096439;28;19919;-80
2022/05/22 09:59:37;;;;;;;;;;;16.40;99.90;;;;;;5096782;28;20011;-80
2022/05/22 10:02:09;;;;;;;;;;;16.60;99.90;;;;;;5095998;28;20015;-80
2022/05/22 10:04:35;;;;;;;;;;;16.80;99.90;;;;;;5096378;28;19978;-80
2022/05/22 10:07:00;;;;;;;;;;;17.00;99.90;;;;;;5096837;28;20377;-83
2022/05/22 10:09:33;;;;;;;;;;;17.20;99.90;;;;;;5097757;28;19912;-81
2022/05/22 10:12:19;;;;;;;;;;;17.30;99.90;;;;;;5108967;28;20547;-82
2022/05/22 10:15:03;;;;;;;;;;;17.30;99.90;;;;;;5109091;28;19909;-83
2022/05/22 10:17:44;;;;;;;;;;;17.20;99.90;;;;;;5111195;28;19916;-82
2022/05/22 10:20:09;;;;;;;;;;;17.30;99.90;;;;;;5099614;28;19970;-82
2022/05/22 10:22:53;;;;;;;;;;;17.40;99.90;;;;;;5094260;28;20350;-81
2022/05/22 10:25:41;;;;;;;;;;;17.40;99.90;;;;;;5094407;28;19912;-82
2022/05/22 10:28:17;;;;;;;;;;;17.40;99.90;;;;;;5094293;28;19912;-81
2022/05/22 10:30:46;;;;;;;;;;;17.50;99.90;;;;;;5093826;28;19909;-82
2022/05/22 10:33:40;;;;;;;;;;;17.60;99.90;;;;;;5094261;28;19912;-82
2022/05/22 10:36:12;;;;;;;;;;;17.50;99.90;;;;;;5056943;28;19908;-82
2022/05/22 10:38:40;;;;;;;;;;;17.50;99.90;;;;;;5094160;28;20010;-82
2022/05/22 10:43:59;;;;;;;;;;;17.40;99.90;;;;;;5093706;28;19999;-82
2022/05/22 10:46:25;;;;;;;;;;;17.50;99.90;;;;;;5093976;28;20010;-82
2022/05/22 10:48:55;;;;;;;;;;;17.50;99.90;;;;;;5093645;28;20387;-82
2022/05/22 10:51:23;;;;;;;;;;;17.60;99.90;;;;;;5094017;28;19915;-80
2022/05/22 10:53:50;;;;;;;;;;;17.50;99.90;;;;;;5093413;28;19909;-80
2022/05/22 10:56:18;;;;;;;;;;;17.50;99.90;;;;;;5093636;28;19908;-81
2022/05/22 10:59:00;;;;;;;;;;;17.30;99.90;;;;;;5093444;28;19927;-81
2022/05/22 11:01:27;;;;;;;;;;;17.40;99.90;;;;;;5093824;28;19999;-81
2022/05/22 11:04:06;;;;;;;;;;;17.50;99.90;;;;;;5093278;28;19908;-80
2022/05/22 11:06:32;;;;;;;;;;;17.50;99.90;;;;;;5094111;28;20344;-81
2022/05/22 11:08:58;;;;;;;;;;;17.50;99.90;;;;;;5093231;28;19919;-81
2022/05/22 11:11:31;;;;;;;;;;;17.60;99.90;;;;;;5093384;28;19915;-80
2022/05/22 11:14:14;;;;;;;;;;;17.70;99.90;;;;;;5093163;28;20254;-81
2022/05/22 11:16:40;;;;;;;;;;;17.80;99.90;;;;;;5093066;28;19934;-80
2022/05/22 11:19:11;;;;;;;;;;;17.90;99.90;;;;;;5093250;28;20430;-81
2022/05/22 11:21:41;;;;;;;;;;;18.00;99.90;;;;;;5093363;28;19908;-81
2022/05/22 11:24:15;;;;;;;;;;;18.10;99.90;;;;;;5093522;28;19996;-81
2022/05/22 11:26:46;;;;;;;;;;;18.10;99.90;;;;;;5092849;28;19920;-81
2022/05/22 11:29:15;;;;;;;;;;;18.20;99.90;;;;;;5093246;28;20361;-80
2022/05/22 11:31:41;;;;;;;;;;;18.10;99.90;;;;;;5092897;28;19916;-81
2022/05/22 11:34:16;;;;;;;;;;;18.00;99.90;;;;;;5093242;28;19915;-82
2022/05/22 11:37:00;;;;;;;;;;;17.90;99.90;;;;;;5092578;28;20012;-81
2022/05/22 11:39:44;;;;;;;;;;;17.90;99.90;;;;;;5093199;28;19948;-81
2022/05/22 11:42:17;;;;;;;;;;;17.90;99.90;;;;;;5093040;28;20007;-81
2022/05/22 11:44:46;;;;;;;;;;;17.80;99.90;;;;;;5092768;28;19916;-80
2022/05/22 11:47:37;;;;;;;;;;;17.90;99.90;;;;;;5092677;28;19973;-82
2022/05/22 11:50:03;;;;;;;;;;;17.90;99.90;;;;;;5076047;28;19919;-81
2022/05/22 11:52:56;;;;;;;;;;;17.90;99.90;;;;;;5093079;28;19908;-81
2022/05/22 11:55:22;;;;;;;;;;;17.90;99.90;;;;;;5093149;28;20369;-82
2022/05/22 11:57:56;;;;;;;;;;;18.10;99.90;;;;;;5092526;28;19966;-81
2022/05/22 12:00:30;;;;;;;;;;;18.30;99.90;;;;;;5093307;28;19912;-81
2022/05/22 12:02:58;;;;;;;;;;;18.50;99.90;;;;;;5092680;28;19931;-81
2022/05/22 12:05:24;;;;;;;;;;;18.60;99.90;;;;;;5092707;28;20337;-83
2022/05/22 12:07:49;;;;;;;;;;;18.70;99.90;;;;;;5093297;28;20014;-82
2022/05/22 12:10:18;;;;;;;;;;;18.70;99.90;;;;;;5097016;28;20280;-82
2022/05/22 12:13:02;;;;;;;;;;;18.50;99.90;;;;;;5096547;28;19908;-82
2022/05/22 12:15:28;;;;;;;;;;;18.30;99.90;;;;;;5096535;28;19908;-82
2022/05/22 12:18:13;;;;;;;;;;;18.20;99.90;;;;;;5096548;28;20315;-82
2022/05/22 12:20:45;;;;;;;;;;;18.10;99.90;;;;;;5097931;28;19908;-83
2022/05/22 12:23:12;;;;;;;;;;;18.00;99.90;;;;;;5097436;28;19920;-83
2022/05/22 12:25:40;;;;;;;;;;;18.20;99.90;;;;;;5096680;28;20353;-82
2022/05/22 12:28:15;;;;;;;;;;;18.40;99.90;;;;;;5096185;28;19919;-83
2022/05/22 12:30:42;;;;;;;;;;;18.50;99.90;;;;;;5096565;28;19908;-82
2022/05/22 12:33:09;;;;;;;;;;;18.50;99.90;;;;;;5096482;28;19908;-82
2022/05/22 12:35:36;;;;;;;;;;;18.60;99.90;;;;;;5096515;28;19914;-82
2022/05/22 12:38:03;;;;;;;;;;;18.60;99.90;;;;;;5096043;28;20684;-82
2022/05/22 12:40:29;;;;;;;;;;;18.70;99.90;;;;;;5096488;28;19961;-82
2022/05/22 12:42:56;;;;;;;;;;;18.80;99.90;;;;;;5095722;28;19912;-82
2022/05/22 12:45:23;;;;;;;;;;;18.90;99.90;;;;;;5096566;28;20024;-82
2022/05/22 12:47:51;;;;;;;;;;;19.00;99.90;;;;;;5095931;28;19936;-81
2022/05/22 12:50:25;;;;;;;;;;;19.20;99.90;;;;;;5096343;28;19908;-83
2022/05/22 12:52:52;;;;;;;;;;;19.30;99.90;;;;;;5095893;28;20007;-83
2022/05/22 12:55:27;;;;;;;;;;;19.60;99.90;;;;;;5096008;28;19954;-82
2022/05/22 12:57:56;;;;;;;;;;;19.90;99.90;;;;;;5095272;28;20334;-82
2022/05/22 13:00:40;;;;;;;;;;;19.90;99.90;;;;;;5096128;28;19951;-82
2022/05/22 13:03:14;;;;;;;;;;;19.90;99.90;;;;;;5095634;28;20305;-82
2022/05/22 13:05:40;;;;;;;;;;;19.80;99.90;;;;;;5095888;28;19919;-81
2022/05/22 13:08:20;;;;;;;;;;;19.70;99.90;;;;;;5095265;28;19954;-82
2022/05/22 13:10:51;;;;;;;;;;;19.60;99.90;;;;;;5095690;28;19909;-82
2022/05/22 13:13:23;;;;;;;;;;;19.60;99.90;;;;;;5095909;28;19947;-81
2022/05/22 13:15:50;;;;;;;;;;;19.70;99.90;;;;;;5104042;28;19924;-81
2022/05/22 13:18:17;;;;;;;;;;;19.60;99.90;;;;;;5114953;28;19908;-81
2022/05/22 13:20:51;;;;;;;;;;;19.50;99.90;;;;;;5100151;28;20357;-82
2022/05/22 13:23:23;;;;;;;;;;;19.30;99.90;;;;;;5095753;28;20045;-82
2022/05/22 13:25:50;;;;;;;;;;;19.20;99.90;;;;;;5095019;28;19977;-81
2022/05/22 13:28:25;;;;;;;;;;;19.00;99.90;;;;;;5095620;28;19916;-82
2022/05/22 13:30:54;;;;;;;;;;;18.90;99.90;;;;;;5095003;28;19912;-82
2022/05/22 13:33:20;;;;;;;;;;;18.70;99.90;;;;;;5095390;28;19908;-82
2022/05/22 13:35:53;;;;;;;;;;;18.70;99.90;;;;;;5095035;28;19962;-79
2022/05/22 13:38:20;;;;;;;;;;;18.70;99.90;;;;;;5095504;28;19915;-82
2022/05/22 13:40:52;;;;;;;;;;;18.70;99.90;;;;;;5094608;28;20421;-78
2022/05/22 13:43:37;;;;;;;;;;;18.70;99.90;;;;;;5095348;28;20003;-82
2022/05/22 13:46:14;;;;;;;;;;;18.90;99.90;;;;;;5094708;28;19912;-82
2022/05/22 13:48:46;;;;;;;;;;;18.90;99.90;;;;;;5094971;28;20310;-82
2022/05/22 13:54:31;;;;;;;;;;;19.00;99.90;;;;;;5091276;28;19968;-83
2022/05/22 13:57:00;;;;;;;;;;;18.90;99.90;;;;;;5094463;28;19908;-82
2022/05/22 13:59:31;;;;;;;;;;;18.90;99.90;;;;;;5094996;28;19908;-83
2022/05/22 14:02:05;;;;;;;;;;;18.70;99.90;;;;;;5094469;28;20273;-82
2022/05/22 14:04:31;;;;;;;;;;;18.70;99.90;;;;;;5094898;28;19912;-82
2022/05/22 14:06:58;;;;;;;;;;;18.70;99.90;;;;;;5094454;28;19919;-82
2022/05/22 14:09:29;;;;;;;;;;;18.60;99.90;;;;;;5094854;28;19955;-82
2022/05/22 14:11:55;;;;;;;;;;;18.70;99.90;;;;;;5094218;28;19915;-82
2022/05/22 14:14:24;;;;;;;;;;;18.70;99.90;;;;;;5095075;28;20250;-82
2022/05/22 14:16:55;;;;;;;;;;;18.80;99.90;;;;;;5094177;28;19936;-81
2022/05/22 14:19:28;;;;;;;;;;;18.90;99.90;;;;;;5094925;28;20003;-83
2022/05/22 14:21:54;;;;;;;;;;;19.10;99.90;;;;;;5093893;28;20361;-82
2022/05/22 14:27:08;;;;;;;;;;;19.40;99.90;;;;;;5093669;28;20441;-83
2022/05/22 14:29:34;;;;;;;;;;;19.50;99.90;;;;;;5094601;28;19919;-82
2022/05/22 14:32:00;;;;;;;;;;;19.50;99.90;;;;;;5093205;28;19908;-83
2022/05/22 14:34:28;;;;;;;;;;;19.60;99.90;;;;;;5094225;28;19908;-83
2022/05/22 14:36:54;;;;;;;;;;;19.80;99.90;;;;;;5093903;28;19908;-82
2022/05/22 14:39:20;;;;;;;;;;;19.90;99.90;;;;;;5094335;28;19908;-82
2022/05/22 14:41:47;;;;;;;;;;;20.10;99.90;;;;;;5094216;28;20265;-83
2022/05/22 14:44:16;;;;;;;;;;;20.20;99.90;;;;;;5093824;28;20376;-82
2022/05/22 14:46:41;;;;;;;;;;;20.10;99.90;;;;;;5093841;28;19955;-83
2022/05/22 14:49:19;;;;;;;;;;;20.20;99.90;;;;;;5093395;28;20004;-81